sensor_id;sensor_type;location;lat;lon;timestamp;temperature;humidity
51615;DHT22;37695;52.960;6.188;2023-01-28T00:00:05;3.00;99.90
51615;DHT22;37695;52.960;6.188;2023-01-28T00:02:33;3.00;99.90
51615;DHT22;37695;52.960;6.188;2023-01-28T00:04:59;3.00;99.90
51615;DHT22;37695;52.960;6.188;2023-01-28T00:07:25;2.90;99.90
51615;DHT22;37695;52.960;6.188;2023-01-28T00:09:50;2.90;99.90
51615;DHT22;37695;52.960;6.188;2023-01-28T00:12:16;2.90;99.90
51615;DHT22;37695;52.960;6.188;2023-01-28T00:14:41;2.90;99.90
51615;DHT22;37695;52.960;6.188;2023-01-28T00:17:07;2.90;99.90
51615;DHT22;37695;52.960;6.188;2023-01-28T00:19:33;2.90;99.90
51615;DHT22;37695;52.960;6.188;2023-01-28T00:21:58;2.90;99.90
51615;DHT22;37695;52.960;6.188;2023-01-28T00:24:24;2.90;99.90
51615;DHT22;37695;52.960;6.188;2023-01-28T00:26:49;2.90;99.90
51615;DHT22;37695;52.960;6.188;2023-01-28T00:29:15;2.90;99.90
51615;DHT22;37695;52.960;6.188;2023-01-28T00:31:41;2.90;99.90
51615;DHT22;37695;52.960;6.188;2023-01-28T00:34:08;2.90;99.90
51615;DHT22;37695;52.960;6.188;2023-01-28T00:36:34;2.90;99.90
51615;DHT22;37695;52.960;6.188;2023-01-28T00:39:04;2.90;99.90
51615;DHT22;37695;52.960;6.188;2023-01-28T00:41:30;2.80;99.90
51615;DHT22;37695;52.960;6.188;2023-01-28T00:43:55;2.80;99.90
51615;DHT22;37695;52.960;6.188;2023-01-28T00:46:22;2.80;99.90
51615;DHT22;37695;52.960;6.188;2023-01-28T00:48:48;2.80;99.90
51615;DHT22;37695;52.960;6.188;2023-01-28T00:51:15;2.80;99.90
51615;DHT22;37695;52.960;6.188;2023-01-28T00:53:45;2.70;99.90
51615;DHT22;37695;52.960;6.188;2023-01-28T00:56:13;2.70;99.90
51615;DHT22;37695;52.960;6.188;2023-01-28T00:58:39;2.70;99.90
51615;DHT22;37695;52.960;6.188;2023-01-28T01:01:10;2.70;99.90
51615;DHT22;37695;52.960;6.188;2023-01-28T01:03:36;2.70;99.90
51615;DHT22;37695;52.960;6.188;2023-01-28T01:06:02;2.70;99.90
51615;DHT22;37695;52.960;6.188;2023-01-28T01:08:28;2.70;99.90
51615;DHT22;37695;52.960;6.188;2023-01-28T01:11:03;2.70;99.90
51615;DHT22;37695;52.960;6.188;2023-01-28T01:13:29;2.70;99.90
51615;DHT22;37695;52.960;6.188;2023-01-28T01:16:07;2.70;99.90
51615;DHT22;37695;52.960;6.188;2023-01-28T01:18:34;2.70;99.90
51615;DHT22;37695;52.960;6.188;2023-01-28T01:21:01;2.70;99.90
51615;DHT22;37695;52.960;6.188;2023-01-28T01:23:27;2.70;99.90
51615;DHT22;37695;52.960;6.188;2023-01-28T01:25:53;2.60;99.90
51615;DHT22;37695;52.960;6.188;2023-01-28T01:28:20;2.70;99.90
51615;DHT22;37695;52.960;6.188;2023-01-28T01:30:46;2.60;99.90
51615;DHT22;37695;52.960;6.188;2023-01-28T01:33:12;2.70;99.90
51615;DHT22;37695;52.960;6.188;2023-01-28T01:35:37;2.70;99.90
51615;DHT22;37695;52.960;6.188;2023-01-28T01:38:03;2.70;99.90
51615;DHT22;37695;52.960;6.188;2023-01-28T01:40:29;2.70;99.90
51615;DHT22;37695;52.960;6.188;2023-01-28T01:42:54;2.70;99.90
51615;DHT22;37695;52.960;6.188;2023-01-28T01:45:20;2.70;99.90
51615;DHT22;37695;52.960;6.188;2023-01-28T01:50:30;2.70;99.90
51615;DHT22;37695;52.960;6.188;2023-01-28T01:53:01;2.70;99.90
51615;DHT22;37695;52.960;6.188;2023-01-28T01:55:30;2.60;99.90
51615;DHT22;37695;52.960;6.188;2023-01-28T01:58:00;2.60;99.90
51615;DHT22;37695;52.960;6.188;2023-01-28T02:00:26;2.60;99.90
51615;DHT22;37695;52.960;6.188;2023-01-28T02:02:52;2.70;99.90
51615;DHT22;37695;52.960;6.188;2023-01-28T02:05:20;2.70;99.90
51615;DHT22;37695;52.960;6.188;2023-01-28T02:07:49;2.60;99.90
51615;DHT22;37695;52.960;6.188;2023-01-28T02:10:15;2.60;99.90
51615;DHT22;37695;52.960;6.188;2023-01-28T02:12:48;2.60;99.90
51615;DHT22;37695;52.960;6.188;2023-01-28T02:15:19;2.70;99.90
51615;DHT22;37695;52.960;6.188;2023-01-28T02:17:46;2.70;99.90
51615;DHT22;37695;52.960;6.188;2023-01-28T02:23:26;2.70;99.90
51615;DHT22;37695;52.960;6.188;2023-01-28T02:26:04;2.70;99.90
51615;DHT22;37695;52.960;6.188;2023-01-28T02:28:53;2.60;99.90
51615;DHT22;37695;52.960;6.188;2023-01-28T02:31:31;2.60;99.90
51615;DHT22;37695;52.960;6.188;2023-01-28T02:34:04;2.60;99.90
51615;DHT22;37695;52.960;6.188;2023-01-28T02:36:48;2.60;99.90
51615;DHT22;37695;52.960;6.188;2023-01-28T02:39:36;2.60;99.90
51615;DHT22;37695;52.960;6.188;2023-01-28T02:42:27;2.60;99.90
51615;DHT22;37695;52.960;6.188;2023-01-28T02:44:53;2.60;99.90
51615;DHT22;37695;52.960;6.188;2023-01-28T02:47:19;2.60;99.90
51615;DHT22;37695;52.960;6.188;2023-01-28T02:50:06;2.50;99.90
51615;DHT22;37695;52.960;6.188;2023-01-28T02:56:01;2.60;99.90
51615;DHT22;37695;52.960;6.188;2023-01-28T03:01:41;2.50;99.90
51615;DHT22;37695;52.960;6.188;2023-01-28T03:04:19;2.60;99.90
51615;DHT22;37695;52.960;6.188;2023-01-28T03:06:49;2.60;99.90
51615;DHT22;37695;52.960;6.188;2023-01-28T03:09:18;2.60;99.90
51615;DHT22;37695;52.960;6.188;2023-01-28T03:11:59;2.60;99.90
51615;DHT22;37695;52.960;6.188;2023-01-28T03:14:54;2.60;99.90
51615;DHT22;37695;52.960;6.188;2023-01-28T03:17:51;2.60;99.90
51615;DHT22;37695;52.960;6.188;2023-01-28T03:20:50;2.50;99.90
51615;DHT22;37695;52.960;6.188;2023-01-28T03:23:43;2.50;99.90
51615;DHT22;37695;52.960;6.188;2023-01-28T03:26:31;2.50;99.90
51615;DHT22;37695;52.960;6.188;2023-01-28T03:29:19;2.50;99.90
51615;DHT22;37695;52.960;6.188;2023-01-28T03:32:04;2.50;99.90
51615;DHT22;37695;52.960;6.188;2023-01-28T03:34:50;2.40;99.90
51615;DHT22;37695;52.960;6.188;2023-01-28T03:37:34;2.40;99.90
51615;DHT22;37695;52.960;6.188;2023-01-28T03:40:02;2.30;99.90
51615;DHT22;37695;52.960;6.188;2023-01-28T03:42:30;2.40;99.90
51615;DHT22;37695;52.960;6.188;2023-01-28T03:44:56;2.50;99.90
51615;DHT22;37695;52.960;6.188;2023-01-28T03:47:27;2.40;99.90
51615;DHT22;37695;52.960;6.188;2023-01-28T03:49:54;2.50;99.90
51615;DHT22;37695;52.960;6.188;2023-01-28T03:52:23;2.50;99.90
51615;DHT22;37695;52.960;6.188;2023-01-28T03:54:48;2.50;99.90
51615;DHT22;37695;52.960;6.188;2023-01-28T03:57:15;2.50;99.90
51615;DHT22;37695;52.960;6.188;2023-01-28T03:59:41;2.50;99.90
51615;DHT22;37695;52.960;6.188;2023-01-28T04:02:08;2.50;99.90
51615;DHT22;37695;52.960;6.188;2023-01-28T04:04:38;2.50;99.90
51615;DHT22;37695;52.960;6.188;2023-01-28T04:07:07;2.50;99.90
51615;DHT22;37695;52.960;6.188;2023-01-28T04:09:38;2.50;99.90
51615;DHT22;37695;52.960;6.188;2023-01-28T04:12:04;2.60;99.90
51615;DHT22;37695;52.960;6.188;2023-01-28T04:14:30;2.60;99.90
51615;DHT22;37695;52.960;6.188;2023-01-28T04:16:56;2.50;99.90
51615;DHT22;37695;52.960;6.188;2023-01-28T04:19:22;2.50;99.90
51615;DHT22;37695;52.960;6.188;2023-01-28T04:21:48;2.60;99.90
51615;DHT22;37695;52.960;6.188;2023-01-28T04:24:14;2.50;99.90
51615;DHT22;37695;52.960;6.188;2023-01-28T04:26:40;2.50;99.90
51615;DHT22;37695;52.960;6.188;2023-01-28T04:29:07;2.50;99.90
51615;DHT22;37695;52.960;6.188;2023-01-28T04:31:33;2.50;99.90
51615;DHT22;37695;52.960;6.188;2023-01-28T04:34:00;2.50;99.90
51615;DHT22;37695;52.960;6.188;2023-01-28T04:36:25;2.40;99.90
51615;DHT22;37695;52.960;6.188;2023-01-28T04:38:51;2.40;99.90
51615;DHT22;37695;52.960;6.188;2023-01-28T04:41:17;2.40;99.90
51615;DHT22;37695;52.960;6.188;2023-01-28T04:43:43;2.40;99.90
51615;DHT22;37695;52.960;6.188;2023-01-28T04:46:09;2.30;99.90
51615;DHT22;37695;52.960;6.188;2023-01-28T04:48:34;2.40;99.90
51615;DHT22;37695;52.960;6.188;2023-01-28T04:51:02;2.40;99.90
51615;DHT22;37695;52.960;6.188;2023-01-28T04:53:28;2.50;99.90
51615;DHT22;37695;52.960;6.188;2023-01-28T04:55:55;2.40;99.90
51615;DHT22;37695;52.960;6.188;2023-01-28T04:58:20;2.50;99.90
51615;DHT22;37695;52.960;6.188;2023-01-28T05:00:46;2.40;99.90
51615;DHT22;37695;52.960;6.188;2023-01-28T05:03:11;2.50;99.90
51615;DHT22;37695;52.960;6.188;2023-01-28T05:05:37;2.50;99.90
51615;DHT22;37695;52.960;6.188;2023-01-28T05:08:02;2.50;99.90
51615;DHT22;37695;52.960;6.188;2023-01-28T05:10:28;2.40;99.90
51615;DHT22;37695;52.960;6.188;2023-01-28T05:12:54;2.40;99.90
51615;DHT22;37695;52.960;6.188;2023-01-28T05:15:20;2.40;99.90
51615;DHT22;37695;52.960;6.188;2023-01-28T05:17:45;2.40;99.90
51615;DHT22;37695;52.960;6.188;2023-01-28T05:20:12;2.40;99.90
51615;DHT22;37695;52.960;6.188;2023-01-28T05:22:38;2.30;99.90
51615;DHT22;37695;52.960;6.188;2023-01-28T05:25:04;2.30;99.90
51615;DHT22;37695;52.960;6.188;2023-01-28T05:27:31;2.30;99.90
51615;DHT22;37695;52.960;6.188;2023-01-28T05:29:57;2.30;99.90
51615;DHT22;37695;52.960;6.188;2023-01-28T05:32:23;2.30;99.90
51615;DHT22;37695;52.960;6.188;2023-01-28T05:34:49;2.30;99.90
51615;DHT22;37695;52.960;6.188;2023-01-28T05:37:14;2.20;99.90
51615;DHT22;37695;52.960;6.188;2023-01-28T05:39:40;2.30;99.90
51615;DHT22;37695;52.960;6.188;2023-01-28T05:42:05;2.30;99.90
51615;DHT22;37695;52.960;6.188;2023-01-28T05:44:31;2.40;99.90
51615;DHT22;37695;52.960;6.188;2023-01-28T05:46:56;2.30;99.90
51615;DHT22;37695;52.960;6.188;2023-01-28T05:49:22;2.40;99.90
51615;DHT22;37695;52.960;6.188;2023-01-28T05:51:47;2.40;99.90
51615;DHT22;37695;52.960;6.188;2023-01-28T05:54:14;2.40;99.90
51615;DHT22;37695;52.960;6.188;2023-01-28T05:56:39;2.40;99.90
51615;DHT22;37695;52.960;6.188;2023-01-28T05:59:05;2.40;99.90
51615;DHT22;37695;52.960;6.188;2023-01-28T06:01:31;2.50;99.90
51615;DHT22;37695;52.960;6.188;2023-01-28T06:03:56;2.50;99.90
51615;DHT22;37695;52.960;6.188;2023-01-28T06:06:23;2.60;99.90
51615;DHT22;37695;52.960;6.188;2023-01-28T06:08:49;2.50;99.90
51615;DHT22;37695;52.960;6.188;2023-01-28T06:11:15;2.40;99.90
51615;DHT22;37695;52.960;6.188;2023-01-28T06:13:40;2.30;99.90
51615;DHT22;37695;52.960;6.188;2023-01-28T06:16:06;2.40;99.90
51615;DHT22;37695;52.960;6.188;2023-01-28T06:18:32;2.30;99.90
51615;DHT22;37695;52.960;6.188;2023-01-28T06:20:58;2.30;99.90
51615;DHT22;37695;52.960;6.188;2023-01-28T06:23:24;2.30;99.90
51615;DHT22;37695;52.960;6.188;2023-01-28T06:25:53;2.40;99.90
51615;DHT22;37695;52.960;6.188;2023-01-28T06:28:19;2.30;99.90
51615;DHT22;37695;52.960;6.188;2023-01-28T06:30:47;2.30;99.90
51615;DHT22;37695;52.960;6.188;2023-01-28T06:33:13;2.30;99.90
51615;DHT22;37695;52.960;6.188;2023-01-28T06:35:39;2.20;99.90
51615;DHT22;37695;52.960;6.188;2023-01-28T06:38:04;2.10;99.90
51615;DHT22;37695;52.960;6.188;2023-01-28T06:40:30;2.20;99.90
51615;DHT22;37695;52.960;6.188;2023-01-28T06:42:56;2.20;99.90
51615;DHT22;37695;52.960;6.188;2023-01-28T06:45:21;2.30;99.90
51615;DHT22;37695;52.960;6.188;2023-01-28T06:47:47;2.30;99.90
51615;DHT22;37695;52.960;6.188;2023-01-28T06:50:12;2.40;99.90
51615;DHT22;37695;52.960;6.188;2023-01-28T06:52:38;2.40;99.90
51615;DHT22;37695;52.960;6.188;2023-01-28T06:55:04;2.40;99.90
51615;DHT22;37695;52.960;6.188;2023-01-28T06:57:29;2.40;99.90
51615;DHT22;37695;52.960;6.188;2023-01-28T06:59:55;2.40;99.90
51615;DHT22;37695;52.960;6.188;2023-01-28T07:02:20;2.40;99.90
51615;DHT22;37695;52.960;6.188;2023-01-28T07:04:46;2.40;99.90
51615;DHT22;37695;52.960;6.188;2023-01-28T07:07:11;2.40;99.90
51615;DHT22;37695;52.960;6.188;2023-01-28T07:09:37;2.30;99.90
51615;DHT22;37695;52.960;6.188;2023-01-28T07:12:03;2.20;99.90
51615;DHT22;37695;52.960;6.188;2023-01-28T07:14:30;2.10;99.90
51615;DHT22;37695;52.960;6.188;2023-01-28T07:16:55;2.10;99.90
51615;DHT22;37695;52.960;6.188;2023-01-28T07:19:21;2.10;99.90
51615;DHT22;37695;52.960;6.188;2023-01-28T07:21:46;2.10;99.90
51615;DHT22;37695;52.960;6.188;2023-01-28T07:24:12;2.10;99.90
51615;DHT22;37695;52.960;6.188;2023-01-28T07:26:38;2.10;99.90
51615;DHT22;37695;52.960;6.188;2023-01-28T07:29:03;2.20;99.90
51615;DHT22;37695;52.960;6.188;2023-01-28T07:31:29;2.10;99.90
51615;DHT22;37695;52.960;6.188;2023-01-28T07:33:54;2.10;99.90
51615;DHT22;37695;52.960;6.188;2023-01-28T07:36:20;2.10;99.90
51615;DHT22;37695;52.960;6.188;2023-01-28T07:38:45;2.10;99.90
51615;DHT22;37695;52.960;6.188;2023-01-28T07:41:11;2.00;99.90
51615;DHT22;37695;52.960;6.188;2023-01-28T07:43:36;2.00;99.90
51615;DHT22;37695;52.960;6.188;2023-01-28T07:46:02;1.90;99.90
51615;DHT22;37695;52.960;6.188;2023-01-28T07:48:28;1.90;99.90
51615;DHT22;37695;52.960;6.188;2023-01-28T07:50:57;2.00;99.90
51615;DHT22;37695;52.960;6.188;2023-01-28T07:53:23;1.90;99.90
51615;DHT22;37695;52.960;6.188;2023-01-28T07:55:49;1.80;99.90
51615;DHT22;37695;52.960;6.188;2023-01-28T07:58:14;1.70;99.90
51615;DHT22;37695;52.960;6.188;2023-01-28T08:00:40;1.60;99.90
51615;DHT22;37695;52.960;6.188;2023-01-28T08:03:13;1.60;99.90
51615;DHT22;37695;52.960;6.188;2023-01-28T08:05:45;1.60;99.90
51615;DHT22;37695;52.960;6.188;2023-01-28T08:08:11;1.70;99.90
51615;DHT22;37695;52.960;6.188;2023-01-28T08:10:37;1.60;99.90
51615;DHT22;37695;52.960;6.188;2023-01-28T08:13:03;1.50;99.90
51615;DHT22;37695;52.960;6.188;2023-01-28T08:15:29;1.50;99.90
51615;DHT22;37695;52.960;6.188;2023-01-28T08:17:58;1.50;99.90
51615;DHT22;37695;52.960;6.188;2023-01-28T08:20:26;1.80;99.90
51615;DHT22;37695;52.960;6.188;2023-01-28T08:22:51;1.50;99.90
51615;DHT22;37695;52.960;6.188;2023-01-28T08:25:17;1.50;99.90
51615;DHT22;37695;52.960;6.188;2023-01-28T08:27:43;1.60;99.90
51615;DHT22;37695;52.960;6.188;2023-01-28T08:30:09;1.60;99.90
51615;DHT22;37695;52.960;6.188;2023-01-28T08:32:35;1.70;99.90
51615;DHT22;37695;52.960;6.188;2023-01-28T08:35:02;1.80;99.90
51615;DHT22;37695;52.960;6.188;2023-01-28T08:37:28;1.80;99.90
51615;DHT22;37695;52.960;6.188;2023-01-28T08:39:53;1.90;99.90
51615;DHT22;37695;52.960;6.188;2023-01-28T08:42:19;2.00;99.90
51615;DHT22;37695;52.960;6.188;2023-01-28T08:44:44;2.10;99.90
51615;DHT22;37695;52.960;6.188;2023-01-28T08:47:10;2.20;99.90
51615;DHT22;37695;52.960;6.188;2023-01-28T08:49:35;2.20;99.90
51615;DHT22;37695;52.960;6.188;2023-01-28T08:52:01;2.30;99.90
51615;DHT22;37695;52.960;6.188;2023-01-28T08:54:26;2.30;99.90
51615;DHT22;37695;52.960;6.188;2023-01-28T08:56:52;2.30;99.90
51615;DHT22;37695;52.960;6.188;2023-01-28T08:59:17;2.30;99.90
51615;DHT22;37695;52.960;6.188;2023-01-28T09:01:43;2.30;99.90
51615;DHT22;37695;52.960;6.188;2023-01-28T09:04:09;2.30;99.90
51615;DHT22;37695;52.960;6.188;2023-01-28T09:06:34;2.30;99.90
51615;DHT22;37695;52.960;6.188;2023-01-28T09:09:00;2.40;99.90
51615;DHT22;37695;52.960;6.188;2023-01-28T09:11:27;2.40;99.90
51615;DHT22;37695;52.960;6.188;2023-01-28T09:13:53;2.40;99.90
51615;DHT22;37695;52.960;6.188;2023-01-28T09:16:18;2.40;99.90
51615;DHT22;37695;52.960;6.188;2023-01-28T09:18:44;2.40;99.90
51615;DHT22;37695;52.960;6.188;2023-01-28T09:21:10;2.40;99.90
51615;DHT22;37695;52.960;6.188;2023-01-28T09:23:36;2.50;99.90
51615;DHT22;37695;52.960;6.188;2023-01-28T09:26:03;2.50;99.90
51615;DHT22;37695;52.960;6.188;2023-01-28T09:28:29;2.60;99.90
51615;DHT22;37695;52.960;6.188;2023-01-28T09:31:09;2.60;99.90
51615;DHT22;37695;52.960;6.188;2023-01-28T09:33:36;2.70;99.90
51615;DHT22;37695;52.960;6.188;2023-01-28T09:36:03;2.70;99.90
51615;DHT22;37695;52.960;6.188;2023-01-28T09:38:30;2.80;99.90
51615;DHT22;37695;52.960;6.188;2023-01-28T09:40:56;2.90;99.90
51615;DHT22;37695;52.960;6.188;2023-01-28T09:46:01;3.00;99.90
51615;DHT22;37695;52.960;6.188;2023-01-28T09:48:39;3.00;99.90
51615;DHT22;37695;52.960;6.188;2023-01-28T09:51:13;3.00;99.90
51615;DHT22;37695;52.960;6.188;2023-01-28T09:53:44;3.10;99.90
51615;DHT22;37695;52.960;6.188;2023-01-28T09:56:15;3.10;99.90
51615;DHT22;37695;52.960;6.188;2023-01-28T09:58:45;3.20;99.90
51615;DHT22;37695;52.960;6.188;2023-01-28T10:01:44;3.20;99.90
51615;DHT22;37695;52.960;6.188;2023-01-28T10:15:08;4.20;99.90
51615;DHT22;37695;52.960;6.188;2023-01-28T10:17:44;3.40;99.90
51615;DHT22;37695;52.960;6.188;2023-01-28T10:20:30;3.50;99.90
51615;DHT22;37695;52.960;6.188;2023-01-28T10:23:07;3.40;99.90
51615;DHT22;37695;52.960;6.188;2023-01-28T10:25:37;3.50;99.90
51615;DHT22;37695;52.960;6.188;2023-01-28T10:28:17;3.50;99.90
51615;DHT22;37695;52.960;6.188;2023-01-28T10:30:44;3.60;99.90
51615;DHT22;37695;52.960;6.188;2023-01-28T10:35:53;3.60;99.90
51615;DHT22;37695;52.960;6.188;2023-01-28T10:38:21;3.70;99.90
51615;DHT22;37695;52.960;6.188;2023-01-28T10:40:47;3.80;99.90
51615;DHT22;37695;52.960;6.188;2023-01-28T10:43:18;3.90;99.90
51615;DHT22;37695;52.960;6.188;2023-01-28T10:46:06;3.90;99.90
51615;DHT22;37695;52.960;6.188;2023-01-28T10:51:10;4.30;99.90
51615;DHT22;37695;52.960;6.188;2023-01-28T10:53:41;4.40;99.90
51615;DHT22;37695;52.960;6.188;2023-01-28T10:56:16;4.50;99.90
51615;DHT22;37695;52.960;6.188;2023-01-28T10:58:56;4.80;99.90
51615;DHT22;37695;52.960;6.188;2023-01-28T11:01:24;4.80;99.90
51615;DHT22;37695;52.960;6.188;2023-01-28T11:03:57;4.90;99.90
51615;DHT22;37695;52.960;6.188;2023-01-28T11:06:25;4.90;99.90
51615;DHT22;37695;52.960;6.188;2023-01-28T11:08:51;4.80;99.90
51615;DHT22;37695;52.960;6.188;2023-01-28T11:11:26;4.80;99.90
51615;DHT22;37695;52.960;6.188;2023-01-28T11:13:53;4.70;99.90
51615;DHT22;37695;52.960;6.188;2023-01-28T11:16:19;4.70;99.90
51615;DHT22;37695;52.960;6.188;2023-01-28T11:18:54;4.60;99.90
51615;DHT22;37695;52.960;6.188;2023-01-28T11:21:24;4.70;99.90
51615;DHT22;37695;52.960;6.188;2023-01-28T11:23:53;4.70;99.90
51615;DHT22;37695;52.960;6.188;2023-01-28T11:26:28;4.70;99.90
51615;DHT22;37695;52.960;6.188;2023-01-28T11:28:55;4.80;99.90
51615;DHT22;37695;52.960;6.188;2023-01-28T11:31:21;4.80;99.90
51615;DHT22;37695;52.960;6.188;2023-01-28T11:36:19;4.90;99.90
51615;DHT22;37695;52.960;6.188;2023-01-28T11:41:18;5.10;99.90
51615;DHT22;37695;52.960;6.188;2023-01-28T11:43:47;5.10;99.90
51615;DHT22;37695;52.960;6.188;2023-01-28T11:49:00;5.10;99.90
51615;DHT22;37695;52.960;6.188;2023-01-28T11:57:11;5.10;99.90
51615;DHT22;37695;52.960;6.188;2023-01-28T12:02:39;5.10;99.90
51615;DHT22;37695;52.960;6.188;2023-01-28T12:05:31;5.10;99.90
51615;DHT22;37695;52.960;6.188;2023-01-28T12:08:23;5.00;99.90
51615;DHT22;37695;52.960;6.188;2023-01-28T12:13:57;5.00;99.90
51615;DHT22;37695;52.960;6.188;2023-01-28T12:16:44;5.00;99.90
51615;DHT22;37695;52.960;6.188;2023-01-28T12:25:34;5.10;99.90
51615;DHT22;37695;52.960;6.188;2023-01-28T12:31:02;5.10;99.90
51615;DHT22;37695;52.960;6.188;2023-01-28T12:33:54;5.00;99.90
51615;DHT22;37695;52.960;6.188;2023-01-28T12:36:47;4.90;99.90
51615;DHT22;37695;52.960;6.188;2023-01-28T12:41:41;4.60;99.90
51615;DHT22;37695;52.960;6.188;2023-01-28T12:44:13;4.70;99.90
51615;DHT22;37695;52.960;6.188;2023-01-28T12:49:23;4.90;99.90
51615;DHT22;37695;52.960;6.188;2023-01-28T12:52:09;5.00;99.90
51615;DHT22;37695;52.960;6.188;2023-01-28T12:55:02;5.00;99.90
51615;DHT22;37695;52.960;6.188;2023-01-28T12:57:30;5.00;99.90
51615;DHT22;37695;52.960;6.188;2023-01-28T13:02:36;5.10;99.90
51615;DHT22;37695;52.960;6.188;2023-01-28T13:05:11;5.10;99.90
51615;DHT22;37695;52.960;6.188;2023-01-28T13:07:58;5.10;99.90
51615;DHT22;37695;52.960;6.188;2023-01-28T13:13:03;5.20;99.90
51615;DHT22;37695;52.960;6.188;2023-01-28T13:15:29;5.20;99.90
51615;DHT22;37695;52.960;6.188;2023-01-28T13:18:04;5.20;99.90
51615;DHT22;37695;52.960;6.188;2023-01-28T13:20:46;5.30;99.90
51615;DHT22;37695;52.960;6.188;2023-01-28T13:28:45;5.60;99.90
51615;DHT22;37695;52.960;6.188;2023-01-28T13:31:13;5.60;99.90
51615;DHT22;37695;52.960;6.188;2023-01-28T13:36:24;5.50;99.90
51615;DHT22;37695;52.960;6.188;2023-01-28T13:41:37;5.40;99.90
51615;DHT22;37695;52.960;6.188;2023-01-28T13:44:03;5.30;99.90
51615;DHT22;37695;52.960;6.188;2023-01-28T13:46:30;5.30;99.90
51615;DHT22;37695;52.960;6.188;2023-01-28T13:48:57;5.30;99.90
51615;DHT22;37695;52.960;6.188;2023-01-28T13:51:30;5.20;99.90
51615;DHT22;37695;52.960;6.188;2023-01-28T13:54:05;5.30;99.90
51615;DHT22;37695;52.960;6.188;2023-01-28T13:59:46;5.30;99.90
51615;DHT22;37695;52.960;6.188;2023-01-28T14:02:31;5.40;99.90
51615;DHT22;37695;52.960;6.188;2023-01-28T14:05:20;5.40;99.90
51615;DHT22;37695;52.960;6.188;2023-01-28T14:11:00;5.60;99.90
51615;DHT22;37695;52.960;6.188;2023-01-28T14:13:50;5.60;99.90
51615;DHT22;37695;52.960;6.188;2023-01-28T14:19:17;5.10;99.90
51615;DHT22;37695;52.960;6.188;2023-01-28T14:21:44;5.50;99.90
51615;DHT22;37695;52.960;6.188;2023-01-28T14:24:16;5.40;99.90
51615;DHT22;37695;52.960;6.188;2023-01-28T14:29:37;5.30;99.90
51615;DHT22;37695;52.960;6.188;2023-01-28T14:32:17;5.20;99.90
51615;DHT22;37695;52.960;6.188;2023-01-28T14:34:45;5.10;99.90
51615;DHT22;37695;52.960;6.188;2023-01-28T14:37:19;5.10;99.90
51615;DHT22;37695;52.960;6.188;2023-01-28T14:39:50;5.10;99.90
51615;DHT22;37695;52.960;6.188;2023-01-28T14:42:42;5.00;99.90
51615;DHT22;37695;52.960;6.188;2023-01-28T14:45:44;5.00;99.90
51615;DHT22;37695;52.960;6.188;2023-01-28T14:48:43;5.00;99.90
51615;DHT22;37695;52.960;6.188;2023-01-28T14:51:44;5.00;99.90
51615;DHT22;37695;52.960;6.188;2023-01-28T14:54:27;5.00;99.90
51615;DHT22;37695;52.960;6.188;2023-01-28T14:59:46;4.90;99.90
51615;DHT22;37695;52.960;6.188;2023-01-28T15:02:18;4.90;99.90
51615;DHT22;37695;52.960;6.188;2023-01-28T15:04:44;4.90;99.90
51615;DHT22;37695;52.960;6.188;2023-01-28T15:09:58;4.90;99.90
51615;DHT22;37695;52.960;6.188;2023-01-28T15:12:24;4.90;99.90
51615;DHT22;37695;52.960;6.188;2023-01-28T15:14:49;4.80;99.90
51615;DHT22;37695;52.960;6.188;2023-01-28T15:17:23;4.80;99.90
51615;DHT22;37695;52.960;6.188;2023-01-28T15:19:51;4.80;99.90
51615;DHT22;37695;52.960;6.188;2023-01-28T15:22:25;4.80;99.90
51615;DHT22;37695;52.960;6.188;2023-01-28T15:24:51;4.80;99.90
51615;DHT22;37695;52.960;6.188;2023-01-28T15:27:23;4.80;99.90
51615;DHT22;37695;52.960;6.188;2023-01-28T15:29:55;4.80;99.90
51615;DHT22;37695;52.960;6.188;2023-01-28T15:32:25;4.80;99.90
51615;DHT22;37695;52.960;6.188;2023-01-28T15:34:51;4.70;99.90
51615;DHT22;37695;52.960;6.188;2023-01-28T15:37:17;4.70;99.90
51615;DHT22;37695;52.960;6.188;2023-01-28T15:39:43;4.70;99.90
51615;DHT22;37695;52.960;6.188;2023-01-28T15:42:17;4.70;99.90
51615;DHT22;37695;52.960;6.188;2023-01-28T15:44:46;4.60;99.90
51615;DHT22;37695;52.960;6.188;2023-01-28T15:49:53;4.60;99.90
51615;DHT22;37695;52.960;6.188;2023-01-28T15:52:20;4.60;99.90
51615;DHT22;37695;52.960;6.188;2023-01-28T15:54:53;4.60;99.90
51615;DHT22;37695;52.960;6.188;2023-01-28T15:57:21;4.60;99.90
51615;DHT22;37695;52.960;6.188;2023-01-28T15:59:47;4.60;99.90
51615;DHT22;37695;52.960;6.188;2023-01-28T16:02:21;4.60;99.90
51615;DHT22;37695;52.960;6.188;2023-01-28T16:05:02;4.60;99.90
51615;DHT22;37695;52.960;6.188;2023-01-28T16:07:31;4.60;99.90
51615;DHT22;37695;52.960;6.188;2023-01-28T16:09:59;4.60;99.90
51615;DHT22;37695;52.960;6.188;2023-01-28T16:12:26;4.50;99.90
51615;DHT22;37695;52.960;6.188;2023-01-28T16:15:02;4.50;99.90
51615;DHT22;37695;52.960;6.188;2023-01-28T16:17:34;4.50;99.90
51615;DHT22;37695;52.960;6.188;2023-01-28T16:20:05;4.50;99.90
51615;DHT22;37695;52.960;6.188;2023-01-28T16:22:37;4.50;99.90
51615;DHT22;37695;52.960;6.188;2023-01-28T16:25:29;4.40;99.90
51615;DHT22;37695;52.960;6.188;2023-01-28T16:27:57;4.40;99.90
51615;DHT22;37695;52.960;6.188;2023-01-28T16:30:24;4.40;99.90
51615;DHT22;37695;52.960;6.188;2023-01-28T16:32:50;4.40;99.90
51615;DHT22;37695;52.960;6.188;2023-01-28T16:35:34;4.30;99.90
51615;DHT22;37695;52.960;6.188;2023-01-28T16:37:59;4.30;99.90
51615;DHT22;37695;52.960;6.188;2023-01-28T16:40:25;4.30;99.90
51615;DHT22;37695;52.960;6.188;2023-01-28T16:42:54;4.30;99.90
51615;DHT22;37695;52.960;6.188;2023-01-28T16:45:22;4.30;99.90
51615;DHT22;37695;52.960;6.188;2023-01-28T16:47:49;4.30;99.90
51615;DHT22;37695;52.960;6.188;2023-01-28T16:50:16;4.40;99.90
51615;DHT22;37695;52.960;6.188;2023-01-28T16:52:44;4.40;99.90
51615;DHT22;37695;52.960;6.188;2023-01-28T16:55:12;4.40;99.90
51615;DHT22;37695;52.960;6.188;2023-01-28T16:57:38;4.30;99.90
51615;DHT22;37695;52.960;6.188;2023-01-28T17:00:05;4.30;99.90
51615;DHT22;37695;52.960;6.188;2023-01-28T17:02:31;4.30;99.90
51615;DHT22;37695;52.960;6.188;2023-01-28T17:04:56;4.30;99.90
51615;DHT22;37695;52.960;6.188;2023-01-28T17:07:22;4.30;99.90
51615;DHT22;37695;52.960;6.188;2023-01-28T17:09:48;4.30;99.90
51615;DHT22;37695;52.960;6.188;2023-01-28T17:12:14;4.30;99.90
51615;DHT22;37695;52.960;6.188;2023-01-28T17:14:40;4.30;99.90
51615;DHT22;37695;52.960;6.188;2023-01-28T17:17:05;4.30;99.90
51615;DHT22;37695;52.960;6.188;2023-01-28T17:19:31;4.30;99.90
51615;DHT22;37695;52.960;6.188;2023-01-28T17:21:59;4.30;99.90
51615;DHT22;37695;52.960;6.188;2023-01-28T17:24:25;4.30;99.90
51615;DHT22;37695;52.960;6.188;2023-01-28T17:26:52;4.30;99.90
51615;DHT22;37695;52.960;6.188;2023-01-28T17:29:18;4.40;99.90
51615;DHT22;37695;52.960;6.188;2023-01-28T17:31:43;4.30;99.90
51615;DHT22;37695;52.960;6.188;2023-01-28T17:34:09;4.40;99.90
51615;DHT22;37695;52.960;6.188;2023-01-28T17:36:36;4.40;99.90
51615;DHT22;37695;52.960;6.188;2023-01-28T17:39:03;4.40;99.90
51615;DHT22;37695;52.960;6.188;2023-01-28T17:41:30;4.40;99.90